createdAt,value
2018-09-28T00:02:16.677Z,5.43
2018-09-28T00:04:53.350Z,7.60
2018-09-28T00:07:22.979Z,3.80
2018-09-28T00:09:53.032Z,5.67
2018-09-28T00:12:22.260Z,4.87
2018-09-28T00:14:59.270Z,4.83
2018-09-28T00:17:28.547Z,6.63
2018-09-28T00:19:58.763Z,6.33
2018-09-28T00:22:28.490Z,5.30
2018-09-28T00:25:05.750Z,4.07
2018-09-28T00:27:34.986Z,5.47
2018-09-28T00:30:06.229Z,4.53
2018-09-28T00:32:35.385Z,4.23
2018-09-28T00:35:11.664Z,4.37
2018-09-28T00:37:41.271Z,8.23
2018-09-28T00:40:13.835Z,4.60
2018-09-28T00:42:43.035Z,4.83
2018-09-28T00:45:13.817Z,4.53
2018-09-28T00:47:43.002Z,6.33
2018-09-28T00:50:20.277Z,5.87
2018-09-28T00:52:49.506Z,5.40
2018-09-28T00:55:18.844Z,4.57
2018-09-28T00:57:48.806Z,4.63
2018-09-28T01:00:21.817Z,5.17
2018-09-28T01:02:52.340Z,3.70
2018-09-28T01:05:23.586Z,4.77
2018-09-28T01:07:52.974Z,5.73
2018-09-28T01:10:26.178Z,6.73
2018-09-28T01:12:56.022Z,6.37
2018-09-28T01:15:28.251Z,5.80
2018-09-28T01:17:57.715Z,5.30
2018-09-28T01:20:34.638Z,4.33
2018-09-28T01:23:03.805Z,4.77
2018-09-28T01:25:34.906Z,5.63
2018-09-28T01:28:04.077Z,4.77
2018-09-28T01:30:37.073Z,6.07
2018-09-28T01:33:06.569Z,5.37
2018-09-28T01:35:42.983Z,7.00
2018-09-28T01:38:12.596Z,6.90
2018-09-28T01:40:42.729Z,6.00
2018-09-28T01:43:11.912Z,4.73
2018-09-28T01:45:48.231Z,7.53
2018-09-28T01:48:17.794Z,6.70
2018-09-28T01:50:48.425Z,5.17
2018-09-28T01:53:18.929Z,4.83
2018-09-28T01:55:51.683Z,5.43
2018-09-28T01:58:20.877Z,6.93
2018-09-28T02:00:54.029Z,7.33
2018-09-28T02:03:23.263Z,8.57
2018-09-28T02:05:56.717Z,5.07
2018-09-28T02:08:26.314Z,6.67
2018-09-28T02:11:01.179Z,6.70
2018-09-28T02:13:30.410Z,5.47
2018-09-28T02:16:03.346Z,8.30
2018-09-28T02:18:32.792Z,6.53
2018-09-28T02:21:09.266Z,5.10
2018-09-28T02:23:38.478Z,7.77
2018-09-28T02:26:10.921Z,6.57
2018-09-28T02:28:40.118Z,7.43
2018-09-28T02:31:12.947Z,5.83
2018-09-28T02:33:42.490Z,7.27
2018-09-28T02:36:15.439Z,7.67
2018-09-28T02:38:44.638Z,6.73
2018-09-28T02:41:21.699Z,6.00
2018-09-28T02:43:51.014Z,7.83
2018-09-28T02:46:20.722Z,6.67
2018-09-28T02:48:49.882Z,8.77
2018-09-28T02:51:26.643Z,6.43
2018-09-28T02:53:55.934Z,9.63
2018-09-28T02:56:25.648Z,6.73
2018-09-28T02:58:55.154Z,11.90
2018-09-28T03:01:28.272Z,6.40
2018-09-28T03:03:57.485Z,12.30
2018-09-28T03:06:30.533Z,10.10
2018-09-28T03:09:00.050Z,8.73
2018-09-28T03:11:32.979Z,10.53
2018-09-28T03:14:02.183Z,7.13
2018-09-28T03:16:35.222Z,8.77
2018-09-28T03:19:04.471Z,10.73
2018-09-28T03:21:37.690Z,8.73
2018-09-28T03:24:06.918Z,7.80
2018-09-28T03:26:44.053Z,8.63
2018-09-28T03:29:13.232Z,12.27
2018-09-28T03:31:43.936Z,9.67
2018-09-28T03:34:13.417Z,8.93
2018-09-28T03:36:46.511Z,9.27
2018-09-28T03:39:15.723Z,7.83
2018-09-28T03:41:49.624Z,9.37
2018-09-28T03:44:18.837Z,8.37
2018-09-28T03:46:55.124Z,9.93
2018-09-28T03:49:24.866Z,12.73
2018-09-28T03:51:55.551Z,8.30
2018-09-28T03:54:24.786Z,12.10
2018-09-28T03:56:58.259Z,7.60
2018-09-28T03:59:27.471Z,8.83
2018-09-28T04:02:02.279Z,8.03
2018-09-28T04:04:31.791Z,7.47
2018-09-28T04:07:04.595Z,8.53
2018-09-28T04:09:33.821Z,9.83
2018-09-28T04:12:07.171Z,9.03
2018-09-28T04:14:36.412Z,10.60
2018-09-28T04:17:13.139Z,8.80
2018-09-28T04:19:42.365Z,9.93
2018-09-28T04:22:15.286Z,9.83
2018-09-28T04:24:44.785Z,10.00
2018-09-28T04:27:17.502Z,10.33
2018-09-28T04:29:46.762Z,13.57
2018-09-28T04:32:18.530Z,7.80
2018-09-28T04:34:47.723Z,9.30
2018-09-28T04:37:24.175Z,8.57
2018-09-28T04:39:53.619Z,10.47
2018-09-28T04:42:23.137Z,11.37
2018-09-28T04:44:52.371Z,14.23
2018-09-28T04:47:28.611Z,12.70
2018-09-28T04:52:29.388Z,9.13
2018-09-28T04:54:58.601Z,8.20
2018-09-28T04:57:31.836Z,13.37
2018-09-28T05:00:02.621Z,11.57
2018-09-28T05:02:33.240Z,10.87
2018-09-28T05:05:02.830Z,7.77
2018-09-28T05:07:40.378Z,9.63
2018-09-28T05:10:09.610Z,8.30
2018-09-28T05:12:38.813Z,9.17
2018-09-28T05:15:08.494Z,11.03
2018-09-28T05:17:41.518Z,17.57
2018-09-28T05:20:10.803Z,15.57
2018-09-28T05:22:44.095Z,14.23
2018-09-28T05:25:13.357Z,13.27
2018-09-28T05:27:49.920Z,13.70
2018-09-28T05:30:19.469Z,12.57
2018-09-28T05:32:50.204Z,11.30
2018-09-28T05:35:19.397Z,10.30
2018-09-28T05:37:52.651Z,9.13
2018-09-28T05:40:21.856Z,9.37
2018-09-28T05:42:58.604Z,11.23
2018-09-28T05:45:28.048Z,12.40
2018-09-28T05:47:57.972Z,12.43
2018-09-28T05:50:27.222Z,12.60
2018-09-28T05:53:04.050Z,15.07
2018-09-28T05:55:33.279Z,12.17
2018-09-28T05:58:11.180Z,15.00
2018-09-28T06:00:45.717Z,13.60
2018-09-28T06:03:17.535Z,12.50
2018-09-28T06:05:51.887Z,12.97
2018-09-28T06:08:21.462Z,13.40
2018-09-28T06:10:50.966Z,9.37
2018-09-28T06:13:21.418Z,12.30
2018-09-28T06:15:51.125Z,17.50
2018-09-28T06:18:20.563Z,14.63
2018-09-28T06:20:49.872Z,19.90
2018-09-28T06:23:19.207Z,12.50
2018-09-28T06:25:48.515Z,12.70
2018-09-28T06:28:21.739Z,12.80
2018-09-28T06:30:51.180Z,12.23
2018-09-28T06:33:28.547Z,13.97
2018-09-28T06:35:58.105Z,13.40
2018-09-28T06:38:27.386Z,16.27
2018-09-28T06:40:58.212Z,18.87
2018-09-28T06:43:28.994Z,15.03
2018-09-28T06:45:58.292Z,18.17
2018-09-28T06:48:31.108Z,21.70
2018-09-28T06:51:00.334Z,29.37
2018-09-28T06:53:34.338Z,33.17
2018-09-28T06:56:03.986Z,23.27
2018-09-28T06:58:36.851Z,21.40
2018-09-28T07:01:06.446Z,18.63
2018-09-28T07:03:39.525Z,22.57
2018-09-28T07:06:08.945Z,23.03
2018-09-28T07:08:45.718Z,20.50
2018-09-28T07:11:14.989Z,21.53
2018-09-28T07:13:45.066Z,26.20
2018-09-28T07:16:14.702Z,24.57
2018-09-28T07:18:47.866Z,25.40
2018-09-28T07:21:17.237Z,21.87
2018-09-28T07:23:50.532Z,25.27
2018-09-28T07:26:20.311Z,30.27
2018-09-28T07:28:53.668Z,31.33
2018-09-28T07:31:23.046Z,27.07
2018-09-28T07:33:55.883Z,25.67
2018-09-28T07:36:25.282Z,24.57
2018-09-28T07:39:02.299Z,31.50
2018-09-28T07:41:31.869Z,28.93
2018-09-28T07:44:01.714Z,30.40
2018-09-28T07:46:31.174Z,33.23
2018-09-28T07:49:06.405Z,30.20
2018-09-28T07:51:35.858Z,28.50
2018-09-28T07:54:08.919Z,27.77
2018-09-28T07:56:39.582Z,28.53
2018-09-28T07:59:12.879Z,36.07
2018-09-28T08:01:42.169Z,28.63
2018-09-28T08:04:15.056Z,32.90
2018-09-28T08:06:44.436Z,28.97
2018-09-28T08:09:17.989Z,29.43
2018-09-28T08:11:47.335Z,30.67
2018-09-28T08:14:20.137Z,26.57
2018-09-28T08:16:49.688Z,30.30
2018-09-28T08:19:22.533Z,30.80
2018-09-28T08:21:52.835Z,31.83
2018-09-28T08:24:23.405Z,31.50
2018-09-28T08:26:52.679Z,33.23
2018-09-28T08:29:29.194Z,35.23
2018-09-28T08:31:58.727Z,33.80
2018-09-28T08:34:28.567Z,30.80
2018-09-28T08:36:58.104Z,32.60
2018-09-28T08:39:30.840Z,35.60
2018-09-28T08:42:00.178Z,38.33
2018-09-28T08:44:33.081Z,33.43
2018-09-28T08:47:02.791Z,32.73
2018-09-28T08:49:35.889Z,32.73
2018-09-28T08:52:05.194Z,33.03
2018-09-28T08:54:38.967Z,29.20
2018-09-28T08:57:08.353Z,29.23
2018-09-28T08:59:41.681Z,31.73
2018-09-28T09:02:11.505Z,27.77
2018-09-28T09:04:48.544Z,26.07
2018-09-28T09:07:18.020Z,26.27
2018-09-28T09:09:47.568Z,26.57
2018-09-28T09:12:24.540Z,27.20
2018-09-28T09:14:54.101Z,25.57
2018-09-28T09:17:23.402Z,24.53
2018-09-28T09:19:52.697Z,25.50
2018-09-28T09:22:21.992Z,25.17
2018-09-28T09:24:55.224Z,26.90
2018-09-28T09:27:24.896Z,25.37
2018-09-28T09:30:01.596Z,25.83
2018-09-28T09:32:30.879Z,26.33
2018-09-28T09:35:01.961Z,25.37
2018-09-28T09:37:31.228Z,25.80
2018-09-28T09:40:08.714Z,24.47
2018-09-28T09:42:37.994Z,23.97
2018-09-28T09:45:08.076Z,24.80
2018-09-28T09:47:37.459Z,26.37
2018-09-28T09:50:14.733Z,23.83
2018-09-28T09:52:44.217Z,24.70
2018-09-28T09:55:14.356Z,27.20
2018-09-28T09:57:43.927Z,26.23
2018-09-28T10:00:21.884Z,24.33
2018-09-28T10:02:56.611Z,24.43
2018-09-28T10:05:25.891Z,22.60
2018-09-28T10:07:55.169Z,21.30
2018-09-28T10:10:24.765Z,20.70
2018-09-28T10:12:54.138Z,26.03
2018-09-28T10:15:23.603Z,25.60
2018-09-28T10:17:53.126Z,25.17
2018-09-28T10:20:30.183Z,22.53
2018-09-28T10:22:59.691Z,25.23
2018-09-28T10:25:28.993Z,22.17
2018-09-28T10:27:58.561Z,26.27
2018-09-28T10:30:31.604Z,27.83
2018-09-28T10:33:00.980Z,27.20
2018-09-28T10:35:34.896Z,28.37
2018-09-28T10:38:04.156Z,27.70
2018-09-28T10:40:36.558Z,25.63
2018-09-28T10:43:06.264Z,29.40
2018-09-28T10:45:39.081Z,29.93
2018-09-28T10:48:08.452Z,26.87
2018-09-28T10:50:45.566Z,24.63
2018-09-28T10:53:14.862Z,22.60
2018-09-28T10:55:44.177Z,19.57
2018-09-28T10:58:13.920Z,18.67
2018-09-28T11:00:50.224Z,16.50
2018-09-28T11:03:19.622Z,19.97
2018-09-28T11:05:49.961Z,18.97
2018-09-28T11:08:19.271Z,13.60
2018-09-28T11:10:56.347Z,17.77
2018-09-28T11:13:25.621Z,18.80
2018-09-28T11:15:56.065Z,14.00
2018-09-28T11:18:26.255Z,14.30
2018-09-28T11:21:00.171Z,11.60
2018-09-28T11:23:29.422Z,14.33
2018-09-28T11:26:02.700Z,15.73
2018-09-28T11:28:32.424Z,17.70
2018-09-28T11:31:05.313Z,19.17
2018-09-28T11:33:35.099Z,17.70
2018-09-28T11:36:11.900Z,18.17
2018-09-28T11:38:41.674Z,12.73
2018-09-28T11:41:12.096Z,15.43
2018-09-28T11:43:41.528Z,16.83
2018-09-28T11:46:14.369Z,16.53
2018-09-28T11:48:43.725Z,13.53
2018-09-28T11:51:16.870Z,14.40
2018-09-28T11:53:46.203Z,11.07
2018-09-28T11:56:19.807Z,13.37
2018-09-28T11:58:49.833Z,12.57
2018-09-28T12:01:23.082Z,18.63
2018-09-28T12:03:52.631Z,16.80
2018-09-28T12:06:24.763Z,12.27
2018-09-28T12:08:54.204Z,11.67
2018-09-28T12:11:28.516Z,12.57
2018-09-28T12:13:58.314Z,16.03
2018-09-28T12:16:29.106Z,12.33
2018-09-28T12:18:58.448Z,18.13
2018-09-28T12:21:31.548Z,14.80
2018-09-28T12:24:01.161Z,10.27
2018-09-28T12:26:33.563Z,16.60
2018-09-28T12:29:03.157Z,18.97
2018-09-28T12:31:36.142Z,8.90
2018-09-28T12:34:05.558Z,11.27
2018-09-28T12:36:38.395Z,15.87
2018-09-28T12:39:09.737Z,10.20
2018-09-28T12:41:42.017Z,10.43
2018-09-28T12:44:12.120Z,14.77
2018-09-28T12:46:45.057Z,11.77
2018-09-28T12:49:14.494Z,10.47
2018-09-28T12:51:47.649Z,14.13
2018-09-28T12:54:17.033Z,12.97
2018-09-28T12:56:50.474Z,10.10
2018-09-28T12:59:19.804Z,12.80
2018-09-28T13:01:52.306Z,11.87
2018-09-28T13:04:22.077Z,12.53
2018-09-28T13:06:59.088Z,11.33
2018-09-28T13:09:28.827Z,19.70
2018-09-28T13:11:59.233Z,12.07
2018-09-28T13:14:28.770Z,9.57
2018-09-28T13:17:02.841Z,11.13
2018-09-28T13:19:32.329Z,10.30
2018-09-28T13:22:05.825Z,13.70
2018-09-28T13:24:35.246Z,13.30
2018-09-28T13:27:08.102Z,10.27
2018-09-28T13:29:38.275Z,10.90
2018-09-28T13:32:11.676Z,7.67
2018-09-28T13:34:41.444Z,11.10
2018-09-28T13:37:14.820Z,12.90
2018-09-28T13:39:44.755Z,7.67
2018-09-28T13:42:17.883Z,7.43
2018-09-28T13:44:47.831Z,8.37
2018-09-28T13:47:19.083Z,17.00
2018-09-28T13:49:48.856Z,13.70
2018-09-28T13:52:23.211Z,13.23
2018-09-28T13:54:52.737Z,8.13
2018-09-28T13:57:23.792Z,8.83
2018-09-28T13:59:53.322Z,15.47
2018-09-28T14:02:26.757Z,12.57
2018-09-28T14:04:58.417Z,11.30
2018-09-28T14:07:30.470Z,9.33
2018-09-28T14:09:59.896Z,9.20
2018-09-28T14:12:33.332Z,18.30
2018-09-28T14:15:02.905Z,8.83
2018-09-28T14:17:34.507Z,8.57
2018-09-28T14:22:40.807Z,8.93
2018-09-28T14:25:12.290Z,7.60
2018-09-28T14:27:42.262Z,13.20
2018-09-28T14:30:11.873Z,9.50
2018-09-28T14:32:45.446Z,9.53
2018-09-28T14:35:15.295Z,7.23
2018-09-28T14:37:46.371Z,11.40
2018-09-28T14:40:16.077Z,10.03
2018-09-28T14:42:47.670Z,9.63
2018-09-28T14:45:17.152Z,15.37
2018-09-28T14:47:50.797Z,8.63
2018-09-28T14:50:20.239Z,10.90
2018-09-28T14:52:58.443Z,9.77
2018-09-28T14:55:28.082Z,7.80
2018-09-28T14:57:57.746Z,10.47
2018-09-28T15:00:27.327Z,9.47
2018-09-28T15:03:00.355Z,11.93
2018-09-28T15:05:30.016Z,12.63
2018-09-28T15:08:03.256Z,6.10
2018-09-28T15:10:34.147Z,9.87
2018-09-28T15:13:05.905Z,8.57
2018-09-28T15:15:35.786Z,17.97
2018-09-28T15:18:08.182Z,5.97
2018-09-28T15:20:37.514Z,11.60
2018-09-28T15:23:15.199Z,8.90
2018-09-28T15:25:45.057Z,11.87
2018-09-28T15:28:15.988Z,12.30
2018-09-28T15:30:45.312Z,5.17
2018-09-28T15:33:18.071Z,9.50
2018-09-28T15:35:48.025Z,13.13
2018-09-28T15:38:21.442Z,6.87
2018-09-28T15:40:50.863Z,13.03
2018-09-28T15:43:23.610Z,5.57
2018-09-28T15:45:54.405Z,8.60
2018-09-28T15:48:25.581Z,6.73
2018-09-28T15:50:55.129Z,10.00
2018-09-28T15:53:28.183Z,12.47
2018-09-28T15:55:57.637Z,8.00
2018-09-28T15:58:32.561Z,11.20
2018-09-28T16:01:04.704Z,5.53
2018-09-28T16:03:35.017Z,6.70
2018-09-28T16:06:04.865Z,7.67
2018-09-28T16:08:38.719Z,4.03
2018-09-28T16:11:09.058Z,13.60
2018-09-28T16:13:38.618Z,8.20
2018-09-28T16:16:09.425Z,7.87
2018-09-28T16:18:40.541Z,8.00
2018-09-28T16:21:09.995Z,7.20
2018-09-28T16:23:49.201Z,8.47
2018-09-28T16:26:19.239Z,4.37
2018-09-28T16:28:49.144Z,7.63
2018-09-28T16:31:23.320Z,5.27
2018-09-28T16:33:52.785Z,7.93
2018-09-28T16:36:22.350Z,6.27
2018-09-28T16:38:52.082Z,8.00
2018-09-28T16:41:22.003Z,4.70
2018-09-28T16:43:54.878Z,5.03
2018-09-28T16:46:24.270Z,4.63
2018-09-28T16:48:56.584Z,5.90
2018-09-28T16:51:26.161Z,4.47
2018-09-28T16:54:03.432Z,7.80
2018-09-28T16:56:33.094Z,6.50
2018-09-28T16:59:03.589Z,7.70
2018-09-28T17:01:33.925Z,6.90
2018-09-28T17:04:07.209Z,5.83
2018-09-28T17:06:36.623Z,7.33
2018-09-28T17:09:10.541Z,7.90
2018-09-28T17:11:40.856Z,7.53
2018-09-28T17:14:17.828Z,10.43
2018-09-28T17:16:51.811Z,8.27
2018-09-28T17:19:21.388Z,7.83
2018-09-28T17:21:50.708Z,9.00
2018-09-28T17:24:21.014Z,5.43
2018-09-28T17:26:51.238Z,7.00
2018-09-28T17:29:20.545Z,6.77
2018-09-28T17:31:50.302Z,9.47
2018-09-28T17:34:22.680Z,6.13
2018-09-28T17:36:55.766Z,7.00
2018-09-28T17:39:25.237Z,7.67
2018-09-28T17:41:56.139Z,4.93
2018-09-28T17:44:26.123Z,4.40
2018-09-28T17:46:55.466Z,5.83
2018-09-28T17:49:34.064Z,7.87
2018-09-28T17:52:03.618Z,5.60
2018-09-28T17:54:33.049Z,5.67
2018-09-28T17:57:02.621Z,6.97
2018-09-28T17:59:36.008Z,5.20
2018-09-28T18:02:05.474Z,5.17
2018-09-28T18:04:37.320Z,10.53
2018-09-28T18:07:06.684Z,11.40
2018-09-28T18:09:40.911Z,9.07
2018-09-28T18:12:10.638Z,11.67
2018-09-28T18:14:43.374Z,7.90
2018-09-28T18:17:12.726Z,6.40
2018-09-28T18:19:45.610Z,8.70
2018-09-28T18:22:15.236Z,7.03
2018-09-28T18:24:48.032Z,20.60
2018-09-28T18:27:18.533Z,13.10
2018-09-28T18:29:51.729Z,6.87
2018-09-28T18:32:21.994Z,8.23
2018-09-28T18:34:55.002Z,6.53
2018-09-28T18:37:24.982Z,8.67
2018-09-28T18:39:57.937Z,7.13
2018-09-28T18:42:30.074Z,6.97
2018-09-28T18:45:00.826Z,7.67
2018-09-28T18:47:30.770Z,7.53
2018-09-28T18:50:04.012Z,8.47
2018-09-28T18:52:33.691Z,7.17
2018-09-28T18:55:07.255Z,5.37
2018-09-28T18:57:36.615Z,7.13
2018-09-28T19:00:09.382Z,4.97
2018-09-28T19:02:39.441Z,11.60
2018-09-28T19:05:17.068Z,3.70
2018-09-28T19:07:46.767Z,5.30
2018-09-28T19:10:16.214Z,7.00
2018-09-28T19:12:46.031Z,7.37
2018-09-28T19:15:19.456Z,4.10
2018-09-28T19:17:49.299Z,4.00
2018-09-28T19:20:19.897Z,8.50
2018-09-28T19:22:49.436Z,6.07
2018-09-28T19:25:22.633Z,3.13
2018-09-28T19:27:52.034Z,8.90
2018-09-28T19:30:25.124Z,5.37
2018-09-28T19:32:54.485Z,8.67
2018-09-28T19:35:27.634Z,7.87
2018-09-28T19:37:57.001Z,6.50
2018-09-28T19:40:33.719Z,9.57
2018-09-28T19:43:03.342Z,3.77
2018-09-28T19:45:32.899Z,6.47
2018-09-28T19:48:02.459Z,7.77
2018-09-28T19:50:34.680Z,4.03
2018-09-28T19:53:04.184Z,4.47
2018-09-28T19:55:46.084Z,6.20
2018-09-28T19:58:15.722Z,5.67
2018-09-28T20:00:45.725Z,3.03
2018-09-28T20:03:15.111Z,7.43
2018-09-28T20:05:48.156Z,3.27
2018-09-28T20:08:18.616Z,4.10
2018-09-28T20:10:49.729Z,10.27
2018-09-28T20:13:21.360Z,3.67
2018-09-28T20:15:52.362Z,2.93
2018-09-28T20:18:25.352Z,5.33
2018-09-28T20:20:56.211Z,6.03
2018-09-28T20:23:26.912Z,4.90
2018-09-28T20:25:57.226Z,3.17
2018-09-28T20:28:27.374Z,2.70
2018-09-28T20:30:57.958Z,7.47
2018-09-28T20:33:29.026Z,2.37
2018-09-28T20:35:59.153Z,7.23
2018-09-28T20:38:29.667Z,3.03
2018-09-28T20:41:05.268Z,3.70
2018-09-28T20:43:36.203Z,5.53
2018-09-28T20:46:06.404Z,3.97
2018-09-28T20:48:38.149Z,4.37
2018-09-28T20:51:07.888Z,6.80
2018-09-28T20:53:37.214Z,7.33
2018-09-28T20:56:12.689Z,3.43
2018-09-28T20:58:41.961Z,4.63
2018-09-28T21:01:14.632Z,1.80
2018-09-28T21:03:44.269Z,2.53
2018-09-28T21:06:16.695Z,5.27
2018-09-28T21:08:46.904Z,3.40
2018-09-28T21:11:19.718Z,5.00
2018-09-28T21:13:49.272Z,6.80
2018-09-28T21:16:22.461Z,4.13
2018-09-28T21:18:52.262Z,5.17
2018-09-28T21:21:25.520Z,3.37
2018-09-28T21:23:54.840Z,6.23
2018-09-28T21:26:26.297Z,5.13
2018-09-28T21:28:56.270Z,9.40
2018-09-28T21:31:29.593Z,6.10
2018-09-28T21:33:59.360Z,5.33
2018-09-28T21:36:36.015Z,10.37
2018-09-28T21:39:06.882Z,8.07
2018-09-28T21:41:36.155Z,6.97
2018-09-28T21:44:05.520Z,6.47
2018-09-28T21:46:38.733Z,7.87
2018-09-28T21:49:08.143Z,3.67
2018-09-28T21:51:40.793Z,10.37
2018-09-28T21:54:10.468Z,4.77
2018-09-28T21:56:43.197Z,4.17
2018-09-28T21:59:12.984Z,4.40
2018-09-28T22:01:46.131Z,4.53
2018-09-28T22:04:15.660Z,4.30
2018-09-28T22:06:48.994Z,7.57
2018-09-28T22:09:18.727Z,5.43
2018-09-28T22:11:51.806Z,3.27
2018-09-28T22:14:21.249Z,5.33
2018-09-28T22:16:54.751Z,4.03
2018-09-28T22:19:24.162Z,5.70
2018-09-28T22:22:01.420Z,3.17
2018-09-28T22:24:31.046Z,10.07
2018-09-28T22:27:01.748Z,3.80
2018-09-28T22:29:31.339Z,6.73
2018-09-28T22:32:04.504Z,5.97
2018-09-28T22:34:33.986Z,8.00
2018-09-28T22:37:06.329Z,5.30
2018-09-28T22:39:36.254Z,5.53
2018-09-28T22:42:12.719Z,12.20
2018-09-28T22:44:41.927Z,5.10
2018-09-28T22:47:16.188Z,5.23
2018-09-28T22:49:45.669Z,5.13
2018-09-28T22:52:16.095Z,3.23
2018-09-28T22:54:45.473Z,4.83
2018-09-28T22:57:18.479Z,6.33
2018-09-28T22:59:48.007Z,7.83
2018-09-28T23:02:22.254Z,3.40
2018-09-28T23:04:51.513Z,4.60
2018-09-28T23:07:23.576Z,3.00
2018-09-28T23:09:52.839Z,6.77
2018-09-28T23:12:25.614Z,6.30
2018-09-28T23:14:54.852Z,4.77
2018-09-28T23:17:27.977Z,5.27
2018-09-28T23:19:57.492Z,3.20
2018-09-28T23:22:30.299Z,2.37
2018-09-28T23:24:59.497Z,7.30
2018-09-28T23:27:36.755Z,3.43
2018-09-28T23:30:06.153Z,5.20
2018-09-28T23:32:36.974Z,3.47
2018-09-28T23:35:07.479Z,2.40
2018-09-28T23:37:41.579Z,3.53
2018-09-28T23:40:10.811Z,4.00
2018-09-28T23:42:43.934Z,10.97
2018-09-28T23:45:13.154Z,4.10
2018-09-28T23:47:46.439Z,7.70
2018-09-28T23:50:15.966Z,4.43
2018-09-28T23:52:49.082Z,3.27
2018-09-28T23:55:18.421Z,6.33
2018-09-28T23:57:53.372Z,5.43
